Time;durP1;ratioP1;P1;durP2;ratioP2;P2;SDS_P1;SDS_P2;PMS_P1;PMS_P2;Temp;Humidity;BMP_temperature;BMP_pressure;BME280_temperature;BME280_humidity;BME280_pressure;Samples;Min_cycle;Max_cycle;Signal;HPM_P1;HPM_P2
2022/01/28 00:00:30;;;;;;;;;;;;;;;6.11;88.14;98968.55;1778627;79;20234;-84
2022/01/28 00:05:21;;;;;;;;;;;;;;;5.72;88.75;98988.11;1762828;79;20256;-84
2022/01/28 00:07:47;;;;;;;;;;;;;;;6.12;87.31;98974.10;1783825;78;21097;-88
2022/01/28 00:10:13;;;;;;;;;;;;;;;6.08;86.54;98956.56;1786548;79;20167;-84
2022/01/28 00:13:14;;;;;;;;;;;;;;;6.15;86.34;98969.86;1786456;78;20184;-84
2022/01/28 00:15:20;;;;;;;;;;;;;;;6.00;86.58;98965.70;1768364;79;20152;-84
2022/01/28 00:39:00;;;;;;;;;;;;;;;6.04;85.30;98967.02;1788581;79;20119;-83
2022/01/28 00:41:27;;;;;;;;;;;;;;;5.75;85.46;98994.84;1787755;79;20210;-83
2022/01/28 00:43:52;;;;;;;;;;;;;;;6.02;84.28;98962.43;1782594;79;20193;-86
2022/01/28 00:46:21;;;;;;;;;;;;;;;5.96;84.37;98986.61;1785022;79;21775;-82
2022/01/28 00:48:48;;;;;;;;;;;;;;;5.99;83.26;98985.02;1782213;79;20125;-86
2022/01/28 00:51:15;;;;;;;;;;;;;;;6.06;83.75;98970.80;1789046;79;20178;-83
2022/01/28 00:53:40;;;;;;;;;;;;;;;6.06;83.12;98979.50;1788164;79;20163;-83
2022/01/28 00:56:08;;;;;;;;;;;;;;;6.20;82.82;98977.25;1786610;79;20157;-82
2022/01/28 00:58:34;;;;;;;;;;;;;;;5.99;82.90;98948.83;1784376;79;21112;-82
2022/01/28 01:00:59;;;;;;;;;;;;;;;6.08;83.00;98959.19;1786624;79;20792;-84
2022/01/28 01:03:25;;;;;;;;;;;;;;;6.08;82.94;98951.33;1788507;79;20165;-82
2022/01/28 01:05:51;;;;;;;;;;;;;;;5.92;82.99;98932.89;1784874;79;20967;-87
2022/01/28 01:08:16;;;;;;;;;;;;;;;6.00;82.73;98938.19;1785306;79;20139;-83
2022/01/28 01:10:42;;;;;;;;;;;;;;;5.90;83.26;98938.75;1786327;79;20998;-83
2022/01/28 01:13:08;;;;;;;;;;;;;;;5.95;82.87;98944.37;1785531;79;20194;-86
2022/01/28 01:15:39;;;;;;;;;;;;;;;6.00;82.74;98940.81;1787222;79;20182;-82
2022/01/28 01:25:30;;;;;;;;;;;;;;;6.05;81.58;98915.45;1789604;79;20182;-83
2022/01/28 01:27:57;;;;;;;;;;;;;;;5.94;82.08;98924.38;1783996;79;20202;-83
2022/01/28 01:30:26;;;;;;;;;;;;;;;5.81;82.12;98916.11;1784471;78;20215;-87
2022/01/28 01:32:52;;;;;;;;;;;;;;;5.88;81.78;98927.62;1781835;79;20173;-82
2022/01/28 01:35:19;;;;;;;;;;;;;;;5.63;81.75;98932.72;1785306;78;21215;-84
2022/01/28 01:37:44;;;;;;;;;;;;;;;5.72;81.79;98920.00;1789757;78;20154;-83
2022/01/28 01:40:12;;;;;;;;;;;;;;;5.62;81.95;98895.70;1786835;79;20183;-84
2022/01/28 01:42:53;;;;;;;;;;;;;;;5.73;81.75;98884.14;1785331;78;20171;-83
2022/01/28 01:53:29;;;;;;;;;;;;;;;5.65;81.36;98872.33;1783752;78;20171;-89
2022/01/28 01:55:55;;;;;;;;;;;;;;;5.47;81.93;98860.60;1776593;79;20155;-84
2022/01/28 01:58:26;;;;;;;;;;;;;;;5.57;81.54;98861.32;1783596;78;20477;-83
2022/01/28 02:00:50;;;;;;;;;;;;;;;5.61;81.53;98865.75;1770714;78;20131;-84
2022/01/28 02:03:18;;;;;;;;;;;;;;;5.72;81.13;98854.52;1784195;78;20272;-82
2022/01/28 02:05:44;;;;;;;;;;;;;;;5.55;81.49;98849.69;1787979;78;20127;-83
2022/01/28 02:08:09;;;;;;;;;;;;;;;5.69;80.98;98851.41;1772292;78;20184;-82
2022/01/28 02:10:35;;;;;;;;;;;;;;;5.60;81.40;98849.22;1768128;79;20158;-82
2022/01/28 02:13:01;;;;;;;;;;;;;;;5.69;81.66;98852.72;1788082;78;21089;-82
2022/01/28 02:15:26;;;;;;;;;;;;;;;5.63;81.74;98835.81;1779126;79;20147;-83
2022/01/28 02:17:52;;;;;;;;;;;;;;;5.55;82.02;98828.74;1786475;78;20161;-82
2022/01/28 02:20:24;;;;;;;;;;;;;;;5.33;83.31;98835.81;1790498;78;20327;-85
2022/01/28 02:22:48;;;;;;;;;;;;;;;5.28;84.97;98875.54;1783927;78;20163;-82
2022/01/28 02:25:25;;;;;;;;;;;;;;;5.33;86.21;98817.02;1785577;79;21134;-83
2022/01/28 02:27:51;;;;;;;;;;;;;;;5.46;85.99;98821.83;1792908;78;20176;-84
2022/01/28 02:30:17;;;;;;;;;;;;;;;5.42;86.64;98827.53;1786508;78;20132;-88
2022/01/28 02:32:44;;;;;;;;;;;;;;;5.35;87.15;98812.44;1780507;78;20647;-83
2022/01/28 02:35:10;;;;;;;;;;;;;;;5.21;87.53;98816.95;1781855;78;21318;-84
2022/01/28 02:37:38;;;;;;;;;;;;;;;5.23;88.58;98807.14;1786887;78;21065;-85
2022/01/28 02:40:05;;;;;;;;;;;;;;;5.28;89.00;98794.40;1781205;78;20708;-88
2022/01/28 02:42:46;;;;;;;;;;;;;;;5.33;89.16;98789.54;1791813;77;20191;-83
2022/01/28 02:45:00;;;;;;;;;;;;;;;5.13;90.13;98783.70;1788070;78;20128;-83
2022/01/28 02:47:32;;;;;;;;;;;;;;;5.16;90.22;98800.91;1779143;78;20151;-83
2022/01/28 02:49:55;;;;;;;;;;;;;;;5.11;89.85;98794.83;1778615;78;20108;-82
2022/01/28 02:52:30;;;;;;;;;;;;;;;4.89;91.97;98814.44;1785030;78;20323;-82
2022/01/28 02:54:50;;;;;;;;;;;;;;;4.98;92.05;98790.48;1778095;79;20203;-84
2022/01/28 02:57:21;;;;;;;;;;;;;;;4.97;92.05;98800.12;1787973;78;20161;-86
2022/01/28 02:59:43;;;;;;;;;;;;;;;4.93;92.62;98780.47;1784340;78;20128;-86
2022/01/28 03:02:08;;;;;;;;;;;;;;;4.93;92.81;98769.20;1792813;78;21061;-85
2022/01/28 03:05:02;;;;;;;;;;;;;;;4.89;92.60;98807.09;1788476;78;20150;-84
2022/01/28 03:07:05;;;;;;;;;;;;;;;4.88;93.99;98764.43;1785347;78;20087;-88
2022/01/28 03:09:48;;;;;;;;;;;;;;;4.88;94.21;98821.13;1787859;78;20246;-85
2022/01/28 03:12:11;;;;;;;;;;;;;;;4.78;95.76;98765.00;1785245;78;20517;-86
2022/01/28 03:14:54;;;;;;;;;;;;;;;4.81;96.17;98769.93;1785435;77;20110;-84
2022/01/28 03:19:52;;;;;;;;;;;;;;;4.72;96.61;98766.92;1789355;78;20827;-86
2022/01/28 03:22:12;;;;;;;;;;;;;;;4.68;96.70;98755.95;1785849;78;20120;-84
2022/01/28 03:24:39;;;;;;;;;;;;;;;4.58;97.84;98753.42;1792553;78;21168;-84
2022/01/28 03:27:11;;;;;;;;;;;;;;;4.63;97.45;98751.66;1783538;78;20150;-87
2022/01/28 03:29:33;;;;;;;;;;;;;;;4.64;97.27;98761.95;1778431;79;20191;-84
2022/01/28 03:31:59;;;;;;;;;;;;;;;4.61;98.00;98746.58;1790480;78;21395;-83
2022/01/28 03:34:24;;;;;;;;;;;;;;;4.72;97.91;98763.00;1787200;78;20508;-83
2022/01/28 03:36:53;;;;;;;;;;;;;;;4.58;98.69;98714.70;1790646;79;20190;-84
2022/01/28 03:39:18;;;;;;;;;;;;;;;4.37;99.42;98746.41;1788385;78;21970;-83
2022/01/28 03:41:44;;;;;;;;;;;;;;;4.71;98.74;98749.58;1787685;79;20183;-82
2022/01/28 03:44:10;;;;;;;;;;;;;;;4.45;99.98;98784.38;1789802;79;20118;-83
2022/01/28 03:46:35;;;;;;;;;;;;;;;4.29;100.00;98741.45;1790622;79;20837;-81
2022/01/28 03:49:01;;;;;;;;;;;;;;;4.51;100.00;98735.41;1786193;79;20120;-85
2022/01/28 03:51:26;;;;;;;;;;;;;;;4.65;100.00;98746.62;1787063;79;21129;-82
2022/01/28 03:53:52;;;;;;;;;;;;;;;4.67;100.00;98731.58;1789473;79;20261;-83
2022/01/28 03:56:17;;;;;;;;;;;;;;;4.47;100.00;98751.05;1784498;78;20154;-83
2022/01/28 03:58:44;;;;;;;;;;;;;;;4.38;100.00;98768.95;1785103;78;20126;-84
2022/01/28 04:01:16;;;;;;;;;;;;;;;4.39;100.00;98762.76;1790089;79;20189;-84
2022/01/28 04:03:42;;;;;;;;;;;;;;;4.47;100.00;98769.34;1790884;78;20135;-84
2022/01/28 04:11:27;;;;;;;;;;;;;;;4.38;100.00;98765.02;1788633;79;20168;-83
2022/01/28 04:11:37;;;;;;;;;;;;;;;7.42;86.74;98760.50;1787288;77;20961;-83
2022/01/28 04:14:16;;;;;;;;;;;;;;;7.55;85.81;98755.54;1787834;79;20147;-84
2022/01/28 04:19:20;;;;;;;;;;;;;;;7.90;83.58;98753.38;1785407;78;20164;-87
2022/01/28 04:21:47;;;;;;;;;;;;;;;8.04;82.61;98737.86;1783921;78;20249;-85
2022/01/28 04:24:13;;;;;;;;;;;;;;;7.83;82.51;98755.55;1788648;79;20143;-87
2022/01/28 04:26:39;;;;;;;;;;;;;;;7.48;85.20;98750.63;1788970;79;20545;-86
2022/01/28 04:29:06;;;;;;;;;;;;;;;7.42;84.32;98768.38;1784533;79;21139;-85
2022/01/28 04:31:32;;;;;;;;;;;;;;;7.32;84.91;98746.77;1789052;78;20189;-84
2022/01/28 04:34:00;;;;;;;;;;;;;;;7.45;84.40;98783.00;1786492;79;20229;-82
2022/01/28 04:36:27;;;;;;;;;;;;;;;7.97;82.83;98745.63;1786145;78;20184;-82
2022/01/28 04:39:00;;;;;;;;;;;;;;;7.48;83.86;98793.16;1785993;79;20166;-81
2022/01/28 04:41:36;;;;;;;;;;;;;;;7.61;84.14;98770.28;1781383;79;20196;-82
2022/01/28 04:44:01;;;;;;;;;;;;;;;7.38;84.81;98774.98;1790464;77;20127;-82
2022/01/28 04:46:39;;;;;;;;;;;;;;;7.51;83.89;98788.38;1789019;79;20119;-81
2022/01/28 04:49:03;;;;;;;;;;;;;;;7.54;85.00;98759.14;1786414;78;20116;-82
2022/01/28 04:54:23;;;;;;;;;;;;;;;7.49;84.67;98782.98;1785660;79;20145;-81
2022/01/28 05:07:25;;;;;;;;;;;;;;;7.48;84.27;98853.07;1783151;79;20165;-82
2022/01/28 05:23:28;;;;;;;;;;;;;;;7.83;83.31;98789.72;1797632;77;20253;-86
2022/01/28 05:26:21;;;;;;;;;;;;;;;7.51;84.85;98781.81;1790162;79;20088;-81
2022/01/28 05:28:28;;;;;;;;;;;;;;;7.78;83.98;98787.60;1792250;78;20123;-83
2022/01/28 05:30:54;;;;;;;;;;;;;;;7.72;85.03;98800.95;1784136;79;20211;-84
2022/01/28 05:33:19;;;;;;;;;;;;;;;7.46;85.60;98809.09;1776068;79;22014;-83
2022/01/28 05:35:45;;;;;;;;;;;;;;;7.57;85.41;98835.97;1795132;78;20762;-89
2022/01/28 05:38:11;;;;;;;;;;;;;;;7.77;85.30;98810.95;1777388;78;20118;-88
2022/01/28 05:40:38;;;;;;;;;;;;;;;7.63;85.44;98803.76;1789663;78;20151;-90
2022/01/28 05:43:04;;;;;;;;;;;;;;;7.87;84.98;98804.97;1795611;78;20151;-84
2022/01/28 05:45:29;;;;;;;;;;;;;;;7.37;86.78;98833.73;1787989;78;21073;-82
2022/01/28 05:47:55;;;;;;;;;;;;;;;7.63;85.74;98830.03;1790722;79;20145;-81
2022/01/28 05:50:21;;;;;;;;;;;;;;;7.94;84.68;98805.59;1781715;79;20856;-81
2022/01/28 05:52:47;;;;;;;;;;;;;;;7.88;84.91;98815.81;1784308;79;20183;-84
2022/01/28 05:55:13;;;;;;;;;;;;;;;7.93;83.78;98843.41;1778678;79;20152;-81
2022/01/28 05:57:39;;;;;;;;;;;;;;;8.01;84.07;98819.70;1771586;79;21066;-80
2022/01/28 06:00:06;;;;;;;;;;;;;;;7.89;83.97;98852.95;1783742;78;20226;-82
2022/01/28 06:02:31;;;;;;;;;;;;;;;8.15;83.10;98822.90;1790618;78;20118;-81
2022/01/28 06:04:57;;;;;;;;;;;;;;;8.07;83.32;98854.50;1788003;78;20167;-81
2022/01/28 06:07:22;;;;;;;;;;;;;;;8.07;83.71;98840.05;1792857;78;20118;-81
2022/01/28 06:09:48;;;;;;;;;;;;;;;7.96;83.81;98829.92;1788512;78;21444;-83
2022/01/28 06:12:14;;;;;;;;;;;;;;;8.04;83.60;98850.91;1783804;78;20157;-81
2022/01/28 06:14:39;;;;;;;;;;;;;;;7.96;83.53;98843.06;1786712;78;20810;-81
2022/01/28 06:17:05;;;;;;;;;;;;;;;7.89;84.17;98863.45;1785113;78;20160;-81
2022/01/28 06:19:30;;;;;;;;;;;;;;;7.85;84.94;98855.58;1784344;78;21073;-83
2022/01/28 06:21:58;;;;;;;;;;;;;;;7.90;83.70;98855.88;1784541;78;21037;-81
2022/01/28 06:24:23;;;;;;;;;;;;;;;8.03;83.54;98868.50;1787740;78;20258;-83
2022/01/28 06:26:49;;;;;;;;;;;;;;;7.82;84.43;98886.65;1789476;79;20139;-83
2022/01/28 06:29:15;;;;;;;;;;;;;;;7.82;84.34;98853.30;1783698;78;20465;-87
2022/01/28 06:31:41;;;;;;;;;;;;;;;8.14;83.07;98862.03;1786131;78;20191;-88
2022/01/28 06:34:07;;;;;;;;;;;;;;;8.01;83.31;98868.33;1786943;79;21113;-82
2022/01/28 06:36:33;;;;;;;;;;;;;;;8.15;82.22;98863.66;1790060;78;20452;-84
2022/01/28 06:38:58;;;;;;;;;;;;;;;8.21;81.79;98886.63;1779609;78;20137;-81
2022/01/28 06:41:24;;;;;;;;;;;;;;;8.26;82.47;98873.81;1789538;78;21086;-88
2022/01/28 06:43:49;;;;;;;;;;;;;;;8.03;83.34;98875.55;1781317;78;20139;-84
2022/01/28 06:46:15;;;;;;;;;;;;;;;8.46;81.62;98879.15;1786926;78;21150;-82
2022/01/28 06:48:41;;;;;;;;;;;;;;;8.70;80.94;98866.31;1786815;78;20152;-81
2022/01/28 06:51:06;;;;;;;;;;;;;;;8.07;82.73;98879.48;1781841;79;20496;-82
2022/01/28 06:53:32;;;;;;;;;;;;;;;8.41;82.16;98891.47;1784527;78;20857;-82
2022/01/28 06:55:57;;;;;;;;;;;;;;;8.27;82.30;98885.14;1783422;79;20195;-83
2022/01/28 06:58:23;;;;;;;;;;;;;;;8.43;81.60;98910.53;1786230;78;22354;-85
2022/01/28 07:00:48;;;;;;;;;;;;;;;8.16;82.81;98917.89;1786506;78;20106;-85
2022/01/28 07:03:14;;;;;;;;;;;;;;;8.20;82.91;98906.05;1784764;78;20159;-85
2022/01/28 07:05:40;;;;;;;;;;;;;;;8.50;82.39;98893.09;1787376;78;20246;-84
2022/01/28 07:08:06;;;;;;;;;;;;;;;8.39;82.03;98914.48;1782123;79;20880;-87
2022/01/28 07:10:32;;;;;;;;;;;;;;;8.25;82.68;98901.09;1785761;78;21166;-83
2022/01/28 07:12:57;;;;;;;;;;;;;;;8.30;82.70;98921.61;1789533;78;20523;-83
2022/01/28 07:15:24;;;;;;;;;;;;;;;8.06;83.11;98943.56;1785127;78;20147;-86
2022/01/28 07:17:51;;;;;;;;;;;;;;;8.19;82.86;98914.92;1789860;78;20207;-85
2022/01/28 07:20:17;;;;;;;;;;;;;;;7.82;84.17;98926.87;1792554;78;20253;-85
2022/01/28 07:22:43;;;;;;;;;;;;;;;8.21;83.01;98927.39;1787597;78;21078;-82
2022/01/28 07:25:09;;;;;;;;;;;;;;;8.26;82.79;98936.93;1786724;78;20293;-83
2022/01/28 07:27:34;;;;;;;;;;;;;;;8.26;82.46;98919.83;1794106;78;20126;-83
2022/01/28 07:30:00;;;;;;;;;;;;;;;8.39;81.86;98948.68;1788958;78;20131;-83
2022/01/28 07:32:26;;;;;;;;;;;;;;;8.17;82.71;98952.89;1782027;78;20127;-82
2022/01/28 07:34:52;;;;;;;;;;;;;;;9.81;76.59;98939.09;1780468;78;21065;-89
2022/01/28 07:37:17;;;;;;;;;;;;;;;9.32;76.91;99003.13;1786438;78;20804;-82
2022/01/28 07:39:43;;;;;;;;;;;;;;;9.05;78.24;98954.41;1782419;78;20159;-84
2022/01/28 07:42:08;;;;;;;;;;;;;;;8.71;78.66;98946.91;1780914;78;21067;-90
2022/01/28 07:44:34;;;;;;;;;;;;;;;8.90;79.00;98963.58;1784502;78;20176;-82
2022/01/28 07:47:00;;;;;;;;;;;;;;;8.90;78.62;99028.09;1789191;78;21165;-85
2022/01/28 07:49:25;;;;;;;;;;;;;;;9.32;78.03;98964.92;1781079;79;20141;-87
2022/01/28 07:51:51;;;;;;;;;;;;;;;8.68;79.09;99017.00;1783759;78;20526;-87
2022/01/28 07:54:16;;;;;;;;;;;;;;;8.63;79.58;99019.64;1784468;78;21175;-86
2022/01/28 07:56:43;;;;;;;;;;;;;;;9.12;77.99;99010.67;1788512;78;20214;-82
2022/01/28 07:59:09;;;;;;;;;;;;;;;8.80;78.24;99023.52;1782770;78;21052;-83
2022/01/28 08:01:35;;;;;;;;;;;;;;;8.84;78.37;99015.61;1785498;78;20146;-83
2022/01/28 08:04:01;;;;;;;;;;;;;;;8.60;79.19;99012.09;1784387;79;20314;-82
2022/01/28 08:06:28;;;;;;;;;;;;;;;9.51;76.59;99032.63;1781511;78;21047;-84
2022/01/28 08:08:56;;;;;;;;;;;;;;;8.89;78.44;99024.31;1788814;78;20235;-81
2022/01/28 08:11:21;;;;;;;;;;;;;;;9.06;77.41;99056.13;1778720;79;20153;-85
2022/01/28 08:13:47;;;;;;;;;;;;;;;8.89;77.48;99036.16;1783539;79;20473;-82
2022/01/28 08:16:13;;;;;;;;;;;;;;;9.07;76.79;99081.96;1783858;78;20197;-88
2022/01/28 08:18:38;;;;;;;;;;;;;;;8.84;77.05;99057.73;1784273;78;20144;-89
2022/01/28 08:21:04;;;;;;;;;;;;;;;8.55;77.44;99065.73;1781890;78;20152;-84
2022/01/28 08:23:29;;;;;;;;;;;;;;;8.48;78.36;99096.33;1784716;78;21945;-88
2022/01/28 08:25:55;;;;;;;;;;;;;;;8.94;76.21;99060.95;1784991;79;20139;-84
2022/01/28 08:28:21;;;;;;;;;;;;;;;8.95;76.39;99082.36;1783986;78;20194;-86
2022/01/28 08:30:46;;;;;;;;;;;;;;;8.87;76.36;99086.35;1788865;78;20120;-87
2022/01/28 08:33:12;;;;;;;;;;;;;;;8.84;77.68;99078.80;1790272;78;20132;-82
2022/01/28 08:35:39;;;;;;;;;;;;;;;8.63;76.85;99136.75;1786311;78;21914;-86
2022/01/28 08:38:15;;;;;;;;;;;;;;;8.63;77.44;99097.78;1783111;79;20975;-86
2022/01/28 08:40:42;;;;;;;;;;;;;;;8.61;77.00;99091.88;1769504;79;20161;-90
2022/01/28 08:43:07;;;;;;;;;;;;;;;8.18;78.26;99118.39;1784123;79;20209;-87
2022/01/28 08:45:33;;;;;;;;;;;;;;;8.38;77.74;99115.42;1783837;78;20154;-85
2022/01/28 08:47:59;;;;;;;;;;;;;;;8.21;77.78;99125.95;1787563;78;20984;-84
2022/01/28 08:50:24;;;;;;;;;;;;;;;8.50;77.10;99141.73;1785947;79;20158;-89
2022/01/28 08:52:50;;;;;;;;;;;;;;;8.75;76.66;99126.69;1787243;78;20138;-82
2022/01/28 08:55:15;;;;;;;;;;;;;;;8.98;75.79;99130.73;1785402;78;20601;-83
2022/01/28 08:57:43;;;;;;;;;;;;;;;9.12;75.39;99141.52;1788638;78;20142;-85
2022/01/28 09:00:12;;;;;;;;;;;;;;;8.81;76.23;99150.22;1784748;79;20461;-84
2022/01/28 09:02:37;;;;;;;;;;;;;;;8.79;75.24;99149.07;1782561;79;20183;-85
2022/01/28 09:05:03;;;;;;;;;;;;;;;8.72;76.07;99153.86;1782791;79;20446;-82
2022/01/28 09:07:29;;;;;;;;;;;;;;;9.29;73.99;99163.33;1784496;79;20275;-88
2022/01/28 09:10:01;;;;;;;;;;;;;;;9.17;73.96;99183.98;1783407;78;20126;-84
2022/01/28 09:14:57;;;;;;;;;;;;;;;8.69;75.24;99189.73;1789869;79;20115;-82
2022/01/28 09:17:23;;;;;;;;;;;;;;;8.92;74.85;99211.72;1784546;78;20586;-86
2022/01/28 09:19:49;;;;;;;;;;;;;;;8.55;75.48;99225.44;1785880;78;20186;-81
2022/01/28 09:22:14;;;;;;;;;;;;;;;8.63;74.98;99203.05;1784724;78;20132;-86
2022/01/28 09:24:40;;;;;;;;;;;;;;;8.16;76.69;99233.45;1783280;79;21080;-87
2022/01/28 09:27:06;;;;;;;;;;;;;;;8.76;74.65;99223.59;1793365;78;20522;-84
2022/01/28 09:29:32;;;;;;;;;;;;;;;8.38;75.51;99288.54;1786297;79;20197;-86
2022/01/28 09:32:00;;;;;;;;;;;;;;;8.29;75.79;99270.29;1784525;79;20249;-87
2022/01/28 09:34:26;;;;;;;;;;;;;;;8.52;75.43;99245.00;1782971;78;20129;-83
2022/01/28 09:36:53;;;;;;;;;;;;;;;8.74;74.02;99266.38;1790786;78;21857;-82
2022/01/28 09:39:20;;;;;;;;;;;;;;;8.73;74.06;99255.03;1782880;79;20124;-83
2022/01/28 09:41:47;;;;;;;;;;;;;;;8.76;74.87;99263.07;1787372;79;20172;-82
2022/01/28 09:44:15;;;;;;;;;;;;;;;8.73;74.54;99285.77;1787086;78;20227;-88
2022/01/28 09:46:41;;;;;;;;;;;;;;;8.97;73.54;99279.17;1786727;78;20168;-86
2022/01/28 09:49:07;;;;;;;;;;;;;;;8.54;74.26;99335.62;1780678;78;21238;-85
2022/01/28 09:51:32;;;;;;;;;;;;;;;8.53;74.85;99290.08;1786517;78;20779;-85
2022/01/28 09:53:58;;;;;;;;;;;;;;;8.78;74.34;99319.03;1789155;79;20196;-85
2022/01/28 09:56:23;;;;;;;;;;;;;;;8.59;74.85;99313.10;1783172;78;20565;-86
2022/01/28 09:58:49;;;;;;;;;;;;;;;8.51;75.07;99338.08;1788007;79;20142;-84
2022/01/28 10:01:15;;;;;;;;;;;;;;;8.63;74.77;99335.45;1783251;78;21111;-84
2022/01/28 10:03:41;;;;;;;;;;;;;;;8.65;74.98;99348.95;1785666;79;20189;-81
2022/01/28 10:06:07;;;;;;;;;;;;;;;8.28;76.09;99316.80;1783311;78;20142;-80
2022/01/28 10:08:32;;;;;;;;;;;;;;;8.71;75.00;99352.25;1785523;78;20916;-84
2022/01/28 10:11:10;;;;;;;;;;;;;;;8.22;75.60;99324.86;1780062;78;20219;-85
2022/01/28 10:13:44;;;;;;;;;;;;;;;8.20;75.40;99339.14;1782606;79;21107;-84
2022/01/28 10:16:20;;;;;;;;;;;;;;;8.09;76.42;99345.52;1780896;79;20117;-82
2022/01/28 10:19:05;;;;;;;;;;;;;;;8.74;73.84;99349.29;1781343;79;20124;-84
2022/01/28 10:21:39;;;;;;;;;;;;;;;8.30;75.62;99367.45;1783186;79;20175;-84
2022/01/28 10:24:17;;;;;;;;;;;;;;;8.44;74.30;99364.72;1783898;79;20192;-84
2022/01/28 10:26:48;;;;;;;;;;;;;;;8.79;73.05;99369.35;1787952;79;21142;-84
2022/01/28 10:29:18;;;;;;;;;;;;;;;8.75;72.51;99390.42;1784672;79;20119;-86
2022/01/28 10:31:48;;;;;;;;;;;;;;;8.94;72.19;99371.66;1781313;79;20225;-85
2022/01/28 10:34:25;;;;;;;;;;;;;;;8.57;73.66;99401.90;1782947;78;20576;-85
2022/01/28 10:36:55;;;;;;;;;;;;;;;8.89;71.88;99388.96;1783266;79;20160;-81
2022/01/28 10:39:21;;;;;;;;;;;;;;;9.28;70.75;99398.31;1787074;79;21140;-85
2022/01/28 10:41:50;;;;;;;;;;;;;;;8.82;71.15;99399.30;1765181;79;38493;-81
2022/01/28 10:44:16;;;;;;;;;;;;;;;8.50;72.28;99417.17;1783717;78;20624;-82
2022/01/28 10:46:41;;;;;;;;;;;;;;;8.83;71.10;99408.86;1785111;79;20214;-83
2022/01/28 10:49:08;;;;;;;;;;;;;;;8.89;70.41;99404.76;1761670;79;20492;-86
2022/01/28 10:51:42;;;;;;;;;;;;;;;8.84;70.92;99429.41;1785518;78;21107;-86
2022/01/28 10:54:09;;;;;;;;;;;;;;;8.90;70.34;99428.30;1787364;78;20264;-83
2022/01/28 10:56:55;;;;;;;;;;;;;;;8.92;70.20;99433.39;1785613;79;20522;-82
2022/01/28 10:59:29;;;;;;;;;;;;;;;9.15;69.55;99445.40;1782133;79;20196;-84
2022/01/28 11:01:55;;;;;;;;;;;;;;;8.76;68.55;99503.94;1783201;78;20174;-85
2022/01/28 11:04:21;;;;;;;;;;;;;;;8.81;68.79;99447.70;1780913;79;21059;-85
2022/01/28 11:06:47;;;;;;;;;;;;;;;8.62;69.04;99460.16;1783129;78;20178;-83
2022/01/28 11:09:14;;;;;;;;;;;;;;;8.74;68.65;99459.84;1783599;78;20139;-87
2022/01/28 11:11:39;;;;;;;;;;;;;;;8.77;68.43;99489.80;1781486;78;20569;-87
2022/01/28 11:14:06;;;;;;;;;;;;;;;9.26;67.85;99464.85;1786948;78;20114;-84
2022/01/28 11:16:31;;;;;;;;;;;;;;;9.32;67.43;99502.40;1782345;78;21054;-84
2022/01/28 11:18:57;;;;;;;;;;;;;;;9.29;67.07;99475.06;1783993;78;20364;-85
2022/01/28 11:21:32;;;;;;;;;;;;;;;8.97;67.18;99470.08;1787296;78;20150;-83
2022/01/28 11:24:30;;;;;;;;;;;;;;;8.90;67.06;99499.38;1782381;79;20211;-83
2022/01/28 11:27:21;;;;;;;;;;;;;;;8.66;67.20;99486.16;1781485;79;20342;-86
2022/01/28 11:29:47;;;;;;;;;;;;;;;8.74;66.69;99525.66;1782065;79;21932;-85
2022/01/28 11:32:17;;;;;;;;;;;;;;;9.24;65.67;99498.42;1760486;79;20294;-87
2022/01/28 11:34:59;;;;;;;;;;;;;;;9.00;64.87;99544.50;1785817;79;20500;-83
2022/01/28 11:37:28;;;;;;;;;;;;;;;8.61;65.77;99547.98;1782220;79;20748;-83
2022/01/28 11:39:53;;;;;;;;;;;;;;;8.81;65.90;99531.94;1784180;79;20156;-90
2022/01/28 11:42:26;;;;;;;;;;;;;;;8.80;66.11;99536.36;1784738;79;21140;-83
2022/01/28 11:44:58;;;;;;;;;;;;;;;8.94;65.37;99569.16;1782408;79;20081;-84
2022/01/28 11:47:27;;;;;;;;;;;;;;;8.73;66.46;99524.00;1781525;79;20137;-84
2022/01/28 11:50:13;;;;;;;;;;;;;;;9.07;65.79;99587.13;1781598;79;20114;-85
2022/01/28 11:52:43;;;;;;;;;;;;;;;8.80;66.55;99575.03;1784469;79;20193;-83
2022/01/28 11:55:26;;;;;;;;;;;;;;;9.06;65.65;99599.14;1786401;79;21167;-84
2022/01/28 11:58:08;;;;;;;;;;;;;;;8.98;65.70;99546.80;1783235;79;20148;-84
2022/01/28 12:00:39;;;;;;;;;;;;;;;8.77;65.96;99566.14;1784755;78;20116;-84
2022/01/28 12:03:22;;;;;;;;;;;;;;;9.20;65.04;99561.66;1780490;79;20233;-84
2022/01/28 12:05:50;;;;;;;;;;;;;;;9.15;65.24;99554.72;1782108;79;20217;-84
2022/01/28 12:08:16;;;;;;;;;;;;;;;9.21;65.03;99569.88;1785703;79;21073;-85
2022/01/28 12:10:44;;;;;;;;;;;;;;;8.95;65.72;99582.66;1779759;79;20171;-88
2022/01/28 12:13:13;;;;;;;;;;;;;;;8.80;66.63;99578.48;1783220;79;20544;-90
2022/01/28 12:16:19;;;;;;;;;;;;;;;8.91;66.64;99599.75;1783558;79;20525;-85
2022/01/28 12:18:26;;;;;;;;;;;;;;;8.88;66.64;99607.97;1777340;79;20179;-87
2022/01/28 12:20:53;;;;;;;;;;;;;;;8.95;67.03;99590.56;1784896;79;21076;-85
2022/01/28 12:23:22;;;;;;;;;;;;;;;9.06;66.46;99616.26;1782623;79;20364;-87
2022/01/28 12:25:50;;;;;;;;;;;;;;;8.75;66.69;99606.29;1787577;79;21087;-83
2022/01/28 12:28:22;;;;;;;;;;;;;;;8.76;66.94;99587.70;1782196;79;20191;-85
2022/01/28 12:31:02;;;;;;;;;;;;;;;8.97;66.34;99599.63;1783231;79;20201;-87
2022/01/28 12:33:32;;;;;;;;;;;;;;;8.68;65.86;99639.48;1772539;79;21057;-83
2022/01/28 12:36:00;;;;;;;;;;;;;;;9.00;65.50;99616.92;1781931;79;20223;-86
2022/01/28 12:38:29;;;;;;;;;;;;;;;8.71;65.95;99641.80;1782818;79;20141;-83
2022/01/28 12:40:57;;;;;;;;;;;;;;;8.91;64.64;99618.19;1782511;79;20092;-84
2022/01/28 12:43:23;;;;;;;;;;;;;;;8.52;64.93;99658.64;1784465;79;20235;-84
2022/01/28 12:46:01;;;;;;;;;;;;;;;8.79;64.20;99654.99;1783408;79;21134;-84
2022/01/28 12:48:27;;;;;;;;;;;;;;;8.71;63.63;99680.78;1780523;78;20204;-85
2022/01/28 12:50:53;;;;;;;;;;;;;;;8.86;63.20;99667.88;1783911;79;20251;-84
2022/01/28 12:53:35;;;;;;;;;;;;;;;8.95;63.13;99636.65;1783318;79;20193;-85
2022/01/28 12:56:01;;;;;;;;;;;;;;;8.87;62.65;99649.78;1779866;79;20208;-83
2022/01/28 12:58:36;;;;;;;;;;;;;;;8.98;62.56;99660.03;1782550;79;21029;-84
2022/01/28 13:01:10;;;;;;;;;;;;;;;8.95;62.97;99666.12;1785136;79;20755;-83
2022/01/28 13:03:47;;;;;;;;;;;;;;;9.16;62.28;99667.02;1780476;79;20431;-88
2022/01/28 13:08:57;;;;;;;;;;;;;;;8.60;63.15;99663.44;1786374;78;20882;-84
2022/01/28 13:11:24;;;;;;;;;;;;;;;8.59;63.46;99684.19;1783124;79;21174;-84
2022/01/28 13:13:56;;;;;;;;;;;;;;;8.83;62.95;99687.12;1783899;79;20175;-85
2022/01/28 13:16:34;;;;;;;;;;;;;;;8.94;62.53;99700.82;1781766;79;20630;-86
2022/01/28 13:19:00;;;;;;;;;;;;;;;8.57;62.93;99723.47;1786265;79;20993;-83
2022/01/28 13:21:26;;;;;;;;;;;;;;;9.07;61.95;99708.28;1786764;78;20206;-83
2022/01/28 13:24:16;;;;;;;;;;;;;;;9.29;61.28;99723.20;1788600;78;21969;-83
2022/01/28 13:27:03;;;;;;;;;;;;;;;8.87;61.06;99736.68;1783139;79;20231;-83
2022/01/28 13:29:37;;;;;;;;;;;;;;;9.04;61.13;99705.16;1783022;78;20257;-83
2022/01/28 13:32:06;;;;;;;;;;;;;;;9.04;61.09;99743.34;1785816;79;20247;-85
2022/01/28 13:34:49;;;;;;;;;;;;;;;8.84;60.99;99734.83;1781692;78;20174;-82
2022/01/28 13:37:41;;;;;;;;;;;;;;;9.08;60.76;99724.94;1787178;78;21104;-82
2022/01/28 13:40:32;;;;;;;;;;;;;;;8.68;61.38;99727.66;1787941;78;20130;-83
2022/01/28 13:43:16;;;;;;;;;;;;;;;8.66;61.49;99779.14;1781685;79;20261;-85
2022/01/28 13:45:56;;;;;;;;;;;;;;;8.64;61.05;99760.05;1782520;79;20143;-90
2022/01/28 13:48:37;;;;;;;;;;;;;;;8.86;60.67;99785.05;1780454;79;20195;-83
2022/01/28 13:51:12;;;;;;;;;;;;;;;8.86;60.83;99753.95;1784423;79;21106;-85
2022/01/28 13:56:47;;;;;;;;;;;;;;;8.68;60.41;99810.58;1782453;79;20122;-90
2022/01/28 13:59:14;;;;;;;;;;;;;;;9.06;60.14;99771.66;1787155;79;20198;-81
2022/01/28 14:01:45;;;;;;;;;;;;;;;9.09;60.27;99784.52;1783949;79;20171;-88
2022/01/28 14:04:19;;;;;;;;;;;;;;;9.21;60.19;99791.17;1790239;79;21063;-87
2022/01/28 14:06:44;;;;;;;;;;;;;;;9.00;61.29;99811.81;1786593;79;20136;-84
2022/01/28 14:09:15;;;;;;;;;;;;;;;8.96;61.37;99793.69;1784042;79;20187;-83
2022/01/28 14:11:50;;;;;;;;;;;;;;;8.82;62.42;99841.62;1782261;79;20196;-83
2022/01/28 14:14:22;;;;;;;;;;;;;;;8.51;63.30;99813.05;1783004;79;20195;-85
2022/01/28 14:16:51;;;;;;;;;;;;;;;8.65;63.45;99881.95;1785046;79;20126;-80
2022/01/28 14:19:17;;;;;;;;;;;;;;;8.74;63.77;99849.45;1784077;79;20486;-80
2022/01/28 14:21:43;;;;;;;;;;;;;;;8.84;63.69;99825.20;1786329;79;20159;-84
2022/01/28 14:24:09;;;;;;;;;;;;;;;8.57;64.89;99849.30;1783189;79;20197;-81
2022/01/28 14:26:43;;;;;;;;;;;;;;;8.90;64.13;99853.55;1759008;79;21515;-82